Time;durP1;ratioP1;P1;durP2;ratioP2;P2;SDS_P1;SDS_P2;PMS_P1;PMS_P2;Temp;Humidity;BMP_temperature;BMP_pressure;BME280_temperature;BME280_humidity;BME280_pressure;Samples;Min_cycle;Max_cycle;Signal;HPM_P1;HPM_P2
2022/07/29 00:02:15;;;;;;;3.65;1.63;;;;;;;11.62;100.00;101452.59;4952495;29;20868;-84
2022/07/29 00:04:49;;;;;;;6.15;1.60;;;;;;;11.60;100.00;101447.41;4952296;29;20421;-83
2022/07/29 00:07:22;;;;;;;3.25;1.40;;;;;;;11.58;100.00;101449.56;4951733;29;20448;-83
2022/07/29 00:09:57;;;;;;;5.03;1.70;;;;;;;11.59;100.00;101440.31;4937654;29;20440;-83
2022/07/29 00:12:30;;;;;;;3.10;1.40;;;;;;;11.73;100.00;101452.34;4952247;29;20422;-82
2022/07/29 00:15:04;;;;;;;3.33;1.50;;;;;;;11.68;100.00;101443.34;4951514;28;20444;-83
2022/07/29 00:17:38;;;;;;;2.40;1.40;;;;;;;11.73;100.00;101448.81;4948241;29;20495;-83
2022/07/29 00:20:11;;;;;;;4.18;1.70;;;;;;;11.71;100.00;101448.25;4948325;29;20430;-82
2022/07/29 00:22:44;;;;;;;3.80;1.60;;;;;;;11.67;100.00;101449.88;4951582;29;20512;-82
2022/07/29 00:25:19;;;;;;;4.93;1.50;;;;;;;11.63;100.00;101446.88;4935127;29;20433;-83
2022/07/29 00:27:52;;;;;;;4.07;1.65;;;;;;;11.64;100.00;101445.78;4951796;29;20788;-83
2022/07/29 00:30:20;;;;;;;3.63;1.52;;;;;;;11.57;100.00;101439.75;4952137;29;20425;-83
2022/07/29 00:32:53;;;;;;;4.28;1.90;;;;;;;11.53;100.00;101430.47;4931572;29;20955;-83
2022/07/29 00:38:13;;;;;;;6.50;1.70;;;;;;;11.60;100.00;101435.69;4935828;29;20441;-83
2022/07/29 00:40:48;;;;;;;4.35;1.85;;;;;;;11.68;100.00;101443.34;4936501;29;20425;-83
2022/07/29 00:43:21;;;;;;;5.90;1.85;;;;;;;11.67;100.00;101439.81;4951679;29;20441;-81
2022/07/29 00:45:50;;;;;;;5.85;1.90;;;;;;;11.58;100.00;101444.13;4933425;29;20422;-82
2022/07/29 00:48:18;;;;;;;3.88;1.70;;;;;;;11.41;100.00;101438.91;4931721;29;20920;-82
2022/07/29 00:50:51;;;;;;;4.97;1.98;;;;;;;11.47;100.00;101442.47;4935017;29;20430;-82
2022/07/29 00:53:25;;;;;;;3.28;1.80;;;;;;;11.42;100.00;101428.81;4950911;29;20421;-84
2022/07/29 00:56:00;;;;;;;6.97;2.00;;;;;;;11.48;100.00;101435.94;4934676;29;20643;-83
2022/07/29 00:58:33;;;;;;;4.13;1.93;;;;;;;11.44;100.00;101426.66;4950976;29;20437;-83
2022/07/29 01:01:02;;;;;;;6.38;2.10;;;;;;;11.44;100.00;101429.38;4951239;29;20933;-82
2022/07/29 01:03:35;;;;;;;5.88;1.88;;;;;;;11.38;100.00;101431.25;4941142;29;20444;-84
2022/07/29 01:06:03;;;;;;;4.63;1.80;;;;;;;11.45;100.00;101417.34;4927950;29;20521;-82
2022/07/29 01:08:37;;;;;;;5.07;1.90;;;;;;;11.45;100.00;101420.09;4949242;29;20437;-82
2022/07/29 01:11:13;;;;;;;5.22;1.80;;;;;;;11.37;100.00;101414.06;4950160;29;20430;-83
2022/07/29 01:13:41;;;;;;;5.20;2.17;;;;;;;11.32;100.00;101408.59;4945069;29;20891;-83
2022/07/29 01:16:15;;;;;;;5.45;2.20;;;;;;;11.35;100.00;101416.25;4931272;29;20800;-82
2022/07/29 01:18:54;;;;;;;4.65;1.92;;;;;;;11.31;100.00;101419.75;4946390;29;20426;-82
2022/07/29 01:21:49;;;;;;;6.53;1.92;;;;;;;11.24;100.00;101414.56;4939516;29;20448;-82
2022/07/29 01:24:39;;;;;;;5.53;2.07;;;;;;;11.20;100.00;101408.84;4953151;29;20511;-83
2022/07/29 01:27:33;;;;;;;5.03;2.03;;;;;;;11.21;100.00;101409.66;4951485;28;20434;-83
2022/07/29 01:30:03;;;;;;;5.00;2.08;;;;;;;11.12;100.00;101413.97;4947209;29;20791;-83
2022/07/29 01:32:39;;;;;;;4.43;1.90;;;;;;;11.26;100.00;101409.69;4948399;28;20425;-83
2022/07/29 01:35:18;;;;;;;5.00;2.10;;;;;;;11.27;100.00;101413.22;4937419;29;20429;-83
2022/07/29 01:38:06;;;;;;;5.87;2.07;;;;;;;11.26;100.00;101409.69;4952395;29;20519;-83
2022/07/29 01:40:39;;;;;;;4.35;1.80;;;;;;;11.29;100.00;101406.41;4952585;29;20990;-83
2022/07/29 01:43:17;;;;;;;4.00;2.00;;;;;;;11.26;100.00;101409.69;4932580;29;20441;-82
2022/07/29 01:45:57;;;;;;;6.43;1.95;;;;;;;11.21;100.00;101396.88;4935595;29;20425;-83
2022/07/29 01:48:39;;;;;;;7.10;2.15;;;;;;;11.19;100.00;101395.47;4948044;29;20895;-83
2022/07/29 01:51:15;;;;;;;4.10;2.00;;;;;;;11.26;100.00;101397.97;4935045;29;20414;-82
2022/07/29 01:53:55;;;;;;;5.20;1.98;;;;;;;11.22;100.00;101398.47;4947155;29;20434;-84
2022/07/29 01:56:33;;;;;;;6.88;2.00;;;;;;;11.19;100.00;101398.22;4951499;29;20437;-83
2022/07/29 01:59:09;;;;;;;6.23;2.10;;;;;;;11.14;100.00;101392.72;4950354;29;20639;-83
2022/07/29 02:01:46;;;;;;;6.07;1.93;;;;;;;11.20;100.00;101386.22;4949394;29;20520;-83
2022/07/29 02:04:17;;;;;;;4.32;1.85;;;;;;;11.20;100.00;101386.22;4933582;29;20436;-83
2022/07/29 02:06:48;;;;;;;6.22;2.00;;;;;;;11.18;100.00;101385.66;4929003;29;20785;-83
2022/07/29 02:09:24;;;;;;;6.13;2.00;;;;;;;11.16;100.00;101377.75;4952438;29;20940;-83
2022/07/29 02:12:00;;;;;;;6.10;2.28;;;;;;;11.17;100.00;101378.56;4930014;29;20449;-83
2022/07/29 02:14:33;;;;;;;4.75;1.92;;;;;;;11.06;100.00;101374.97;4950335;29;20886;-82
2022/07/29 02:17:04;;;;;;;4.30;1.90;;;;;;;11.03;100.00;101360.00;4939411;29;20438;-83
2022/07/29 02:19:38;;;;;;;4.70;2.00;;;;;;;10.99;100.00;101366.25;4949761;29;20456;-82
2022/07/29 02:22:13;;;;;;;4.25;2.00;;;;;;;11.04;100.00;101369.81;4948029;29;20437;-83
2022/07/29 02:24:48;;;;;;;3.40;1.80;;;;;;;11.03;100.00;101376.34;4916976;29;20438;-83
2022/07/29 02:27:23;;;;;;;5.55;2.28;;;;;;;11.06;100.00;101367.66;4948782;29;20422;-83
2022/07/29 02:29:59;;;;;;;7.25;2.30;;;;;;;11.10;100.00;101369.84;4925837;29;20445;-83
2022/07/29 02:32:36;;;;;;;5.73;2.00;;;;;;;11.10;100.00;101356.22;4948394;28;20438;-82
2022/07/29 02:35:11;;;;;;;4.53;2.10;;;;;;;11.19;100.00;101369.06;4937785;29;20451;-83
2022/07/29 02:38:49;;;;;;;7.55;2.30;;;;;;;11.17;100.00;101368.50;4951290;28;20421;-84
2022/07/29 02:40:43;;;;;;;5.00;2.10;;;;;;;11.06;100.00;101356.75;4955205;28;20433;-83
2022/07/29 02:43:12;;;;;;;4.97;2.10;;;;;;;11.10;100.00;101375.28;4953944;29;20906;-83
2022/07/29 02:45:40;;;;;;;8.20;2.30;;;;;;;11.13;100.00;101372.03;4934699;29;20784;-83
2022/07/29 02:48:15;;;;;;;4.80;2.08;;;;;;;11.09;100.00;101362.75;4937412;29;20444;-83
2022/07/29 02:50:52;;;;;;;5.78;2.22;;;;;;;11.10;100.00;101364.38;4950760;29;20880;-82
2022/07/29 02:53:27;;;;;;;5.10;2.35;;;;;;;10.92;100.00;101352.88;4935764;29;20433;-82
2022/07/29 02:55:59;;;;;;;6.05;2.20;;;;;;;11.05;100.00;101359.75;4933273;29;20431;-83
2022/07/29 02:58:35;;;;;;;5.30;2.20;;;;;;;10.98;100.00;101356.44;4937452;29;20458;-83
2022/07/29 03:01:12;;;;;;;5.95;2.38;;;;;;;11.01;100.00;101354.00;4937702;29;20434;-83
2022/07/29 03:03:49;;;;;;;6.20;2.10;;;;;;;10.86;100.00;101334.88;4936668;29;20413;-83
2022/07/29 03:06:18;;;;;;;5.70;2.20;;;;;;;11.03;100.00;101357.28;4938039;29;20529;-82
2022/07/29 03:08:47;;;;;;;6.13;2.30;;;;;;;10.99;100.00;101350.75;4937802;29;20434;-83
2022/07/29 03:11:21;;;;;;;4.85;2.15;;;;;;;10.95;100.00;101355.06;4934462;29;21030;-83
2022/07/29 03:13:55;;;;;;;6.97;2.38;;;;;;;10.89;100.00;101354.22;4935868;29;20446;-83
2022/07/29 03:16:29;;;;;;;5.20;2.20;;;;;;;11.00;100.00;101363.25;4936705;29;20433;-83
2022/07/29 03:18:59;;;;;;;6.15;2.20;;;;;;;11.08;100.00;101361.13;4940187;29;20433;-83
2022/07/29 03:21:33;;;;;;;5.65;2.13;;;;;;;10.99;100.00;101349.91;4953381;29;20426;-82
2022/07/29 03:24:07;;;;;;;4.65;2.30;;;;;;;11.05;100.00;101360.56;4947269;28;20438;-83
2022/07/29 03:26:35;;;;;;;5.50;2.13;;;;;;;11.03;100.00;101354.56;4933478;29;20496;-82
2022/07/29 03:29:08;;;;;;;5.28;2.20;;;;;;;11.10;100.00;101353.50;4952403;29;20452;-83
2022/07/29 03:31:41;;;;;;;6.15;2.40;;;;;;;10.93;100.00;101353.69;4937121;29;20465;-82
2022/07/29 03:34:16;;;;;;;4.40;2.00;;;;;;;10.96;100.00;101353.16;4951277;29;20430;-83
2022/07/29 03:36:50;;;;;;;6.07;2.22;;;;;;;11.04;100.00;101358.91;4936436;29;20437;-83
2022/07/29 03:39:22;;;;;;;5.38;2.10;;;;;;;11.04;100.00;101353.47;4950252;29;20894;-83
2022/07/29 03:41:57;;;;;;;7.30;2.25;;;;;;;10.98;100.00;101354.53;4935513;29;20906;-82
2022/07/29 03:44:32;;;;;;;6.55;2.28;;;;;;;11.12;100.00;101346.69;4952350;29;20910;-83
2022/07/29 03:47:02;;;;;;;6.05;2.17;;;;;;;11.13;100.00;101345.63;4935056;29;20430;-82
2022/07/29 03:49:38;;;;;;;4.78;2.15;;;;;;;11.08;100.00;101328.44;4936653;29;20437;-83
2022/07/29 03:52:06;;;;;;;4.40;2.00;;;;;;;11.18;100.00;101342.88;4947621;28;20431;-83
2022/07/29 03:54:40;;;;;;;4.30;2.17;;;;;;;11.21;100.00;101342.38;4937157;29;20442;-83
2022/07/29 03:57:16;;;;;;;5.72;2.30;;;;;;;11.20;100.00;101345.38;4935501;29;20435;-83
2022/07/29 03:59:49;;;;;;;6.20;2.50;;;;;;;11.15;100.00;101326.28;4947658;29;20429;-82
2022/07/29 04:02:24;;;;;;;5.68;2.10;;;;;;;11.25;100.00;101342.63;4935673;29;20430;-83
2022/07/29 04:04:58;;;;;;;6.75;2.28;;;;;;;11.32;100.00;101345.13;4952123;29;20429;-85
2022/07/29 04:07:32;;;;;;;5.47;2.03;;;;;;;11.31;100.00;101344.31;4952287;29;20797;-82
2022/07/29 04:10:06;;;;;;;5.43;2.20;;;;;;;11.32;100.00;101342.38;4933514;29;20426;-82
2022/07/29 04:12:34;;;;;;;5.57;2.00;;;;;;;11.34;100.00;101338.31;4944595;28;20950;-83
2022/07/29 04:15:08;;;;;;;6.28;2.28;;;;;;;11.36;100.00;101343.50;4946261;28;20499;-82
2022/07/29 04:17:36;;;;;;;5.65;2.30;;;;;;;11.38;100.00;101342.13;4945952;28;20441;-83
2022/07/29 04:20:08;;;;;;;6.53;2.15;;;;;;;11.40;100.00;101337.22;4942974;28;20426;-83
2022/07/29 04:22:41;;;;;;;6.07;2.17;;;;;;;11.41;100.00;101338.06;4945627;28;20885;-83
2022/07/29 04:25:09;;;;;;;4.55;2.10;;;;;;;11.38;100.00;101339.41;4944100;28;20897;-82
2022/07/29 04:30:30;;;;;;;6.38;2.70;;;;;;;11.45;100.00;101338.31;4935017;29;20447;-84
2022/07/29 04:33:05;;;;;;;7.18;2.38;;;;;;;11.54;100.00;101326.63;4932950;29;20441;-82
2022/07/29 04:35:40;;;;;;;6.60;2.50;;;;;;;11.52;100.00;101322.53;4946121;28;20433;-83
2022/07/29 04:38:13;;;;;;;4.70;2.20;;;;;;;11.51;100.00;101323.63;4947173;29;20437;-82
2022/07/29 04:40:46;;;;;;;6.55;2.33;;;;;;;11.57;100.00;101325.25;4939571;29;20433;-81
2022/07/29 04:43:19;;;;;;;5.57;2.40;;;;;;;11.56;100.00;101321.72;4936896;29;20441;-83
2022/07/29 04:45:48;;;;;;;7.07;2.30;;;;;;;11.65;100.00;101329.38;4936228;29;20422;-82
2022/07/29 04:48:21;;;;;;;5.65;2.30;;;;;;;11.68;100.00;101324.19;4954196;28;20922;-82
2022/07/29 04:50:55;;;;;;;5.00;2.03;;;;;;;11.74;100.00;101328.56;4937839;29;20435;-82
2022/07/29 04:53:29;;;;;;;5.55;2.03;;;;;;;11.80;100.00;101323.91;4952172;28;20438;-83
2022/07/29 04:56:02;;;;;;;5.95;2.28;;;;;;;11.83;100.00;101333.47;4921048;29;20471;-83
2022/07/29 04:58:36;;;;;;;5.85;2.20;;;;;;;11.87;100.00;101319.00;4944184;28;20936;-82
2022/07/29 05:01:09;;;;;;;5.85;2.55;;;;;;;12.03;100.00;101329.97;4943442;28;20776;-81
2022/07/29 05:03:42;;;;;;;6.22;2.30;;;;;;;12.16;100.00;101334.84;4942195;28;20433;-80
2022/07/29 05:06:12;;;;;;;7.13;2.30;;;;;;;12.21;100.00;101331.31;4945808;28;20488;-80
2022/07/29 05:08:40;;;;;;;4.35;2.10;;;;;;;12.23;100.00;101324.47;4944554;29;20438;-80
2022/07/29 05:11:13;;;;;;;4.95;2.20;;;;;;;12.47;100.00;101325.78;4949588;29;20939;-81
2022/07/29 05:13:47;;;;;;;6.00;2.30;;;;;;;12.92;100.00;101334.94;4935237;29;20512;-80
2022/07/29 05:16:20;;;;;;;5.68;2.10;;;;;;;14.54;100.00;101326.09;4950911;28;20433;-80
2022/07/29 05:18:53;;;;;;;6.25;1.92;;;;;;;15.27;100.00;101324.97;4948819;28;20620;-79
2022/07/29 05:21:27;;;;;;;5.15;1.92;;;;;;;15.81;100.00;101317.31;4931868;29;20921;-80
2022/07/29 05:24:01;;;;;;;3.83;1.90;;;;;;;15.52;100.00;101316.63;4952182;28;20429;-81
2022/07/29 05:26:29;;;;;;;4.82;1.90;;;;;;;15.12;100.00;101323.25;4945823;29;20449;-82
2022/07/29 05:29:02;;;;;;;7.72;2.40;;;;;;;14.92;100.00;101323.50;4932754;29;20919;-78
2022/07/29 05:31:35;;;;;;;5.13;1.90;;;;;;;14.66;100.00;101320.25;4943914;28;20444;-80
2022/07/29 05:34:09;;;;;;;7.18;1.95;;;;;;;14.66;100.00;101334.75;4947144;28;20438;-80
2022/07/29 05:36:43;;;;;;;3.70;1.75;;;;;;;14.38;100.00;101322.72;4947399;28;20445;-82
2022/07/29 05:39:16;;;;;;;3.97;1.70;;;;;;;14.12;100.00;101325.69;4949231;28;20433;-79
2022/07/29 05:41:49;;;;;;;6.25;2.50;;;;;;;14.02;100.00;101332.09;4932948;29;20811;-80
2022/07/29 05:44:22;;;;;;;4.15;1.80;;;;;;;13.93;100.00;101331.91;4947546;28;20426;-81
2022/07/29 05:46:55;;;;;;;4.93;1.95;;;;;;;13.85;100.00;101342.63;4950219;28;20441;-81
2022/07/29 05:49:29;;;;;;;5.20;2.00;;;;;;;13.84;100.00;101339.06;4951161;29;20429;-81
2022/07/29 05:51:58;;;;;;;5.80;1.83;;;;;;;13.81;100.00;101330.59;4933872;29;20791;-81
2022/07/29 05:54:32;;;;;;;5.40;1.90;;;;;;;13.78;100.00;101337.47;4919970;29;20438;-80
2022/07/29 05:57:00;;;;;;;5.15;1.90;;;;;;;13.79;100.00;101339.09;4921012;28;20442;-82
2022/07/29 05:59:28;;;;;;;4.07;1.90;;;;;;;13.92;100.00;101333.00;4909948;28;20434;-81
2022/07/29 06:02:01;;;;;;;6.97;1.90;;;;;;;13.79;100.00;101325.44;4913094;28;20982;-81
2022/07/29 06:04:30;;;;;;;4.43;1.85;;;;;;;13.97;100.00;101343.06;4936812;28;20453;-82
2022/07/29 06:06:59;;;;;;;4.35;1.77;;;;;;;13.98;100.00;101344.72;4930164;28;20438;-84
2022/07/29 06:09:33;;;;;;;5.47;1.98;;;;;;;14.00;100.00;101341.69;4914472;29;20440;-80
2022/07/29 06:12:06;;;;;;;4.45;1.88;;;;;;;14.01;100.00;101341.38;4929938;29;20446;-82
2022/07/29 06:14:40;;;;;;;3.13;1.80;;;;;;;14.07;100.00;101339.41;4920915;29;20438;-81
2022/07/29 06:17:08;;;;;;;4.03;1.60;;;;;;;13.97;100.00;101323.91;4935256;28;20445;-81
2022/07/29 06:19:37;;;;;;;4.03;1.80;;;;;;;14.19;100.00;101341.78;4916553;29;20517;-79
2022/07/29 06:22:11;;;;;;;4.50;1.80;;;;;;;14.33;100.00;101342.75;4918116;29;20445;-81
2022/07/29 06:24:44;;;;;;;4.50;1.98;;;;;;;14.46;100.00;101335.78;4935336;28;20445;-81
2022/07/29 06:27:18;;;;;;;5.35;1.85;;;;;;;14.62;100.00;101336.41;4937397;28;20433;-82
2022/07/29 06:29:51;;;;;;;5.00;1.90;;;;;;;14.92;100.00;101337.22;4923205;29;20445;-80
2022/07/29 06:32:19;;;;;;;4.35;1.70;;;;;;;15.26;100.00;101326.06;4939921;28;20429;-79
2022/07/29 06:34:52;;;;;;;3.83;1.63;;;;;;;15.38;100.00;101335.78;4930712;28;20446;-79
2022/07/29 06:37:22;;;;;;;5.18;1.98;;;;;;;15.46;100.00;101333.16;4932764;28;20441;-81
2022/07/29 06:42:43;;;;;;;5.82;1.90;;;;;;;15.44;100.00;101337.34;4930065;28;20430;-82
2022/07/29 06:45:16;;;;;;;4.97;1.80;;;;;;;15.60;100.00;101335.16;4934840;28;20430;-83
2022/07/29 06:47:49;;;;;;;4.03;1.70;;;;;;;15.70;100.00;101328.69;4930334;28;21266;-81
2022/07/29 06:50:23;;;;;;;5.37;1.70;;;;;;;15.96;100.00;101329.97;4932977;29;20433;-82
2022/07/29 06:52:57;;;;;;;4.05;1.60;;;;;;;16.00;100.00;101332.09;4918898;29;20433;-83
2022/07/29 06:55:30;;;;;;;6.30;1.70;;;;;;;16.25;100.00;101328.88;4933688;29;21386;-81
2022/07/29 06:58:03;;;;;;;5.43;1.60;;;;;;;16.42;100.00;101317.34;4935781;29;20943;-82
2022/07/29 07:00:37;;;;;;;3.03;1.60;;;;;;;16.54;100.00;101321.50;4932595;29;20768;-80
2022/07/29 07:03:10;;;;;;;7.80;1.52;;;;;;;16.53;100.00;101328.94;4938187;29;20437;-83
2022/07/29 07:05:44;;;;;;;4.80;1.80;;;;;;;16.32;100.00;101307.34;4936302;29;20440;-79
2022/07/29 07:08:19;;;;;;;3.83;1.52;;;;;;;16.38;100.00;101316.31;4931307;29;20437;-82
2022/07/29 07:10:47;;;;;;;3.38;1.58;;;;;;;16.26;100.00;101318.75;4935410;29;20421;-82
2022/07/29 07:13:20;;;;;;;3.90;1.60;;;;;;;16.37;100.00;101316.63;4914114;29;20942;-82
2022/07/29 07:15:50;;;;;;;3.58;1.50;;;;;;;16.41;100.00;101317.66;4941717;29;20414;-83
2022/07/29 07:18:23;;;;;;;5.35;1.50;;;;;;;16.51;100.00;101314.69;4931421;29;20438;-82
2022/07/29 07:20:57;;;;;;;4.35;1.52;;;;;;;16.61;100.00;101306.25;4926986;29;21047;-80
2022/07/29 07:23:31;;;;;;;3.67;1.50;;;;;;;16.64;100.00;101310.31;4909493;29;20450;-81
2022/07/29 07:26:05;;;;;;;3.13;1.50;;;;;;;16.72;100.00;101309.59;4926943;28;20452;-82
2022/07/29 07:28:38;;;;;;;4.80;1.75;;;;;;;16.66;100.00;101297.88;4925109;29;20441;-82
2022/07/29 07:31:06;;;;;;;5.07;1.77;;;;;;;16.86;100.00;101312.31;4910224;29;20895;-82
2022/07/29 07:33:40;;;;;;;4.00;1.60;;;;;;;17.00;100.00;101309.63;4926334;29;20516;-81
2022/07/29 07:36:08;;;;;;;6.22;1.80;;;;;;;17.12;100.00;101304.41;4925136;29;20422;-81
2022/07/29 07:38:42;;;;;;;3.60;1.55;;;;;;;17.16;100.00;101302.63;4911843;29;20441;-80
2022/07/29 07:41:10;;;;;;;2.77;1.40;;;;;;;17.37;100.00;101304.13;4926852;28;20434;-80
2022/07/29 07:43:44;;;;;;;4.20;1.90;;;;;;;17.38;100.00;101308.50;4911955;29;20438;-81
2022/07/29 07:46:17;;;;;;;3.40;1.45;;;;;;;17.47;100.00;101301.94;4927868;28;20838;-83
2022/07/29 07:48:52;;;;;;;3.97;1.73;;;;;;;17.53;100.00;101297.13;4917284;29;20816;-81
2022/07/29 07:51:20;;;;;;;6.10;1.67;;;;;;;17.70;100.00;101304.69;4931463;29;20429;-80
2022/07/29 07:53:54;;;;;;;4.25;1.40;;;;;;;17.78;100.00;101303.94;4914211;29;20430;-81
2022/07/29 07:56:28;;;;;;;6.32;1.70;;;;;;;17.87;100.00;101306.78;4929539;29;20434;-81
2022/07/29 07:59:01;;;;;;;3.95;1.60;;;;;;;17.83;100.00;101294.75;4934656;29;20430;-81
2022/07/29 08:01:29;;;;;;;3.95;1.42;;;;;;;17.77;100.00;101296.84;4911661;29;21340;-81
2022/07/29 08:04:02;;;;;;;3.50;1.50;;;;;;;17.84;100.00;101299.13;4934117;29;20444;-81
2022/07/29 08:06:31;;;;;;;3.92;1.50;;;;;;;17.74;100.00;101289.19;4931962;29;21047;-83
2022/07/29 08:09:00;;;;;;;3.50;1.50;;;;;;;17.83;100.00;101287.31;4940511;29;20445;-81
2022/07/29 08:11:33;;;;;;;7.15;1.70;;;;;;;17.84;100.00;101290.84;4914873;29;20440;-81
2022/07/29 08:14:06;;;;;;;4.10;1.70;;;;;;;18.07;100.00;101296.38;4931394;29;20474;-82
2022/07/29 08:16:40;;;;;;;7.13;1.40;;;;;;;18.28;100.00;101293.88;4931389;29;20494;-82
2022/07/29 08:19:13;;;;;;;2.95;1.50;;;;;;;18.55;100.00;101292.03;4929410;29;20436;-82
2022/07/29 08:21:46;;;;;;;3.73;1.40;;;;;;;18.69;100.00;101284.47;4934746;29;20941;-81
2022/07/29 08:27:01;;;;;;;3.22;1.60;;;;;;;18.93;100.00;101288.75;4911525;29;20437;-80
2022/07/29 08:29:34;;;;;;;5.10;1.50;;;;;;;19.10;100.00;101280.53;4933647;29;20472;-80
2022/07/29 08:32:08;;;;;;;4.32;1.70;;;;;;;19.13;100.00;101279.88;4914689;29;20433;-81
2022/07/29 08:34:41;;;;;;;3.97;1.40;;;;;;;19.30;100.00;101287.34;4937217;29;20436;-82
2022/07/29 08:37:14;;;;;;;3.65;1.50;;;;;;;19.53;100.00;101285.22;4933435;28;21122;-80
2022/07/29 08:39:48;;;;;;;4.05;1.42;;;;;;;19.48;100.00;101284.56;4934307;29;20433;-81
2022/07/29 08:42:22;;;;;;;4.22;1.70;;;;;;;19.27;100.00;101282.47;4938470;29;20433;-82
2022/07/29 08:44:55;;;;;;;4.20;1.50;;;;;;;19.25;100.00;101283.94;4935566;29;20441;-82
2022/07/29 08:47:29;;;;;;;7.43;1.60;;;;;;;19.24;100.00;101276.78;4929444;29;20413;-81
2022/07/29 08:50:02;;;;;;;5.35;1.60;;;;;;;19.28;100.00;101275.00;4933227;29;20482;-82
2022/07/29 08:52:36;;;;;;;3.92;1.52;;;;;;;19.44;100.00;101272.56;4930068;29;20428;-80
2022/07/29 08:55:11;;;;;;;5.30;1.40;;;;;;;19.53;100.00;101270.63;4930036;29;20434;-81
2022/07/29 08:57:46;;;;;;;5.00;1.50;;;;;;;19.72;100.00;101267.50;4921410;29;20430;-79
2022/07/29 09:00:17;;;;;;;5.30;1.40;;;;;;;19.89;100.00;101263.91;4919914;29;20425;-81
2022/07/29 09:02:56;;;;;;;3.15;1.45;;;;;;;20.01;100.00;101269.56;4912893;29;20426;-81
2022/07/29 09:05:30;;;;;;;3.50;1.50;;;;;;;20.19;100.00;101269.50;4936709;29;20445;-80
2022/07/29 09:08:05;;;;;;;4.75;1.45;;;;;;;20.16;100.00;101270.16;4930045;29;20945;-81
2022/07/29 09:10:40;;;;;;;5.82;1.40;;;;;;;20.33;100.00;101263.78;4938992;29;20438;-81
2022/07/29 09:13:13;;;;;;;2.95;1.40;;;;;;;20.54;100.00;101256.31;4913069;29;21099;-81
2022/07/29 09:15:46;;;;;;;2.67;1.27;;;;;;;20.90;100.00;101254.19;4931873;29;20752;-83
2022/07/29 09:18:34;;;;;;;5.53;1.77;;;;;;;21.08;100.00;101251.31;4929208;29;20433;-81
2022/07/29 09:24:06;;;;;;;4.25;1.20;;;;;;;21.24;100.00;101255.06;4929315;29;20433;-83
2022/07/29 09:26:42;;;;;;;3.15;1.30;;;;;;;21.29;98.11;101242.97;4916456;29;20437;-81
2022/07/29 09:29:17;;;;;;;4.82;1.40;;;;;;;21.49;98.05;101247.69;4928059;29;20441;-81
2022/07/29 09:31:48;;;;;;;3.00;1.40;;;;;;;21.46;95.64;101239.22;4934370;29;20417;-80
2022/07/29 09:34:25;;;;;;;5.68;1.55;;;;;;;21.32;94.92;101242.28;4929194;29;21089;-81
2022/07/29 09:36:58;;;;;;;5.60;1.52;;;;;;;21.27;92.04;101248.03;4926451;29;20421;-81
2022/07/29 09:39:33;;;;;;;3.70;1.40;;;;;;;21.22;95.23;101244.31;4929973;29;21169;-82
2022/07/29 09:42:05;;;;;;;4.47;1.55;;;;;;;21.44;100.00;101253.41;4927441;29;20422;-81
2022/07/29 09:44:44;;;;;;;3.20;1.30;;;;;;;21.43;89.19;101254.56;4925792;28;20434;-81
2022/07/29 09:47:25;;;;;;;3.30;1.30;;;;;;;21.62;89.38;101247.75;4915398;29;20422;-81
2022/07/29 09:49:58;;;;;;;3.17;1.25;;;;;;;21.84;85.45;101243.75;4928311;28;20425;-80
2022/07/29 09:52:32;;;;;;;3.38;1.30;;;;;;;22.04;85.01;101244.81;4932923;29;20638;-80
2022/07/29 09:55:06;;;;;;;5.95;1.30;;;;;;;22.23;80.49;101258.13;4933181;29;20444;-82
2022/07/29 09:57:35;;;;;;;3.75;1.30;;;;;;;22.41;75.78;101245.69;4929217;29;20421;-81
2022/07/29 10:00:11;;;;;;;7.95;1.30;;;;;;;22.25;61.97;101247.50;4911783;29;20918;-82
2022/07/29 10:02:45;;;;;;;4.20;1.20;;;;;;;22.43;77.14;101250.91;4929724;28;20926;-81
2022/07/29 10:05:21;;;;;;;7.82;1.40;;;;;;;22.44;66.46;101244.16;4928578;29;20437;-81
2022/07/29 10:07:56;;;;;;;4.00;1.20;;;;;;;22.47;79.79;101235.19;4934017;29;20430;-81
2022/07/29 10:10:31;;;;;;;3.13;1.20;;;;;;;22.30;68.56;101238.16;4934693;29;20428;-80
2022/07/29 10:13:08;;;;;;;4.50;1.33;;;;;;;22.47;77.23;101229.63;4913627;29;20791;-81
2022/07/29 10:15:44;;;;;;;4.70;1.20;;;;;;;22.66;71.10;101234.59;4909441;29;20437;-82
2022/07/29 10:18:19;;;;;;;3.87;1.30;;;;;;;22.79;76.62;101220.66;4929545;29;20558;-82
2022/07/29 10:20:53;;;;;;;3.63;1.30;;;;;;;22.65;71.16;101232.13;4938070;29;20436;-82
2022/07/29 10:23:22;;;;;;;3.53;1.30;;;;;;;22.90;67.79;101219.03;4908950;29;21633;-84
2022/07/29 10:25:55;;;;;;;4.57;1.20;;;;;;;23.08;67.43;101222.34;4928525;29;20421;-82
2022/07/29 10:28:31;;;;;;;4.07;1.27;;;;;;;23.39;63.55;101212.50;4927158;29;20436;-80
2022/07/29 10:31:07;;;;;;;5.45;1.27;;;;;;;23.54;59.83;101224.81;4923817;29;20434;-82
2022/07/29 10:33:52;;;;;;;5.72;1.40;;;;;;;23.52;66.11;101224.34;4924181;29;20433;-82
2022/07/29 10:36:43;;;;;;;3.55;1.50;;;;;;;23.65;69.13;101216.78;4910955;29;20442;-82
2022/07/29 10:39:28;;;;;;;3.10;1.15;;;;;;;23.89;67.63;101216.66;4926822;29;20438;-82
2022/07/29 10:42:14;;;;;;;4.00;1.30;;;;;;;23.81;67.08;101209.25;4928067;29;20441;-81
2022/07/29 10:44:50;;;;;;;8.20;1.30;;;;;;;23.55;66.15;101216.13;4924178;29;21927;-80
2022/07/29 10:47:24;;;;;;;5.50;1.20;;;;;;;23.25;55.39;101207.38;4907000;29;20563;-82
2022/07/29 10:49:59;;;;;;;3.50;1.20;;;;;;;22.92;61.38;101205.59;4908661;29;20913;-82
2022/07/29 10:53:02;;;;;;;4.00;1.50;;;;;;;22.57;66.81;101200.59;4927366;29;20433;-82
2022/07/29 10:55:36;;;;;;;4.22;1.35;;;;;;;22.62;61.67;101205.09;4831973;29;20448;-80
2022/07/29 10:58:13;;;;;;;3.50;1.35;;;;;;;22.79;66.91;101199.28;4920685;29;20450;-81
2022/07/29 11:00:50;;;;;;;4.22;1.23;;;;;;;22.69;70.41;101208.09;4912946;29;20469;-81
2022/07/29 11:03:45;;;;;;;4.32;1.25;;;;;;;22.66;63.06;101192.97;4933588;29;20430;-83
2022/07/29 11:06:18;;;;;;;3.40;1.30;;;;;;;22.72;66.71;101199.88;4928391;29;21098;-81
2022/07/29 11:09:16;;;;;;;5.20;1.33;;;;;;;22.82;66.07;101195.00;4924819;29;20483;-82
2022/07/29 11:11:50;;;;;;;2.72;1.20;;;;;;;22.81;70.82;101202.50;4936421;29;20430;-81
2022/07/29 11:14:57;;;;;;;3.63;1.33;;;;;;;22.84;64.28;101196.28;4928787;29;20425;-82
2022/07/29 11:17:27;;;;;;;3.10;1.30;;;;;;;22.86;65.61;101190.38;4929675;29;20433;-81
2022/07/29 11:20:34;;;;;;;3.67;1.10;;;;;;;22.88;56.85;101199.97;4932372;29;20870;-82
2022/07/29 11:23:23;;;;;;;4.93;1.30;;;;;;;22.80;72.32;101197.31;4916342;29;21681;-82
2022/07/29 11:26:19;;;;;;;4.80;1.50;;;;;;;22.88;68.51;101188.88;4931784;29;20767;-81
2022/07/29 11:29:00;;;;;;;2.85;1.15;;;;;;;22.83;67.62;101196.59;4930622;29;22127;-82
2022/07/29 11:31:39;;;;;;;3.90;1.40;;;;;;;22.78;65.12;101197.66;4928758;29;20782;-83
2022/07/29 11:34:25;;;;;;;3.45;1.33;;;;;;;22.96;68.27;101189.06;4927606;29;20432;-82
2022/07/29 11:37:22;;;;;;;2.73;1.17;;;;;;;22.99;67.09;101180.81;4927041;29;20417;-83
2022/07/29 11:40:13;;;;;;;4.32;1.30;;;;;;;23.12;52.45;101183.56;4926730;29;20434;-81
2022/07/29 11:42:47;;;;;;;4.13;1.30;;;;;;;23.23;77.96;101188.28;4933218;29;20453;-82
2022/07/29 11:45:27;;;;;;;3.17;1.15;;;;;;;23.44;56.03;101187.25;4930800;29;20468;-82
2022/07/29 11:48:01;;;;;;;3.95;1.30;;;;;;;23.53;78.88;101181.53;4914342;29;20794;-81
2022/07/29 11:50:37;;;;;;;4.82;1.17;;;;;;;23.62;69.83;101184.94;4933203;28;20452;-81
2022/07/29 11:53:12;;;;;;;5.80;1.02;;;;;;;23.62;65.47;101182.19;4919549;29;20441;-83
2022/07/29 11:55:45;;;;;;;3.73;1.27;;;;;;;23.55;57.58;101182.78;4921748;29;20437;-82
2022/07/29 11:58:14;;;;;;;3.57;1.00;;;;;;;23.57;57.40;101171.31;4932476;29;20421;-81
2022/07/29 12:00:47;;;;;;;5.67;1.37;;;;;;;23.44;55.57;101176.16;4932979;29;21059;-83
2022/07/29 12:03:25;;;;;;;4.65;1.20;;;;;;;23.61;65.15;101180.56;4912445;29;20453;-81
2022/07/29 12:06:00;;;;;;;4.63;1.27;;;;;;;23.87;54.67;101165.34;4930761;29;20434;-80
2022/07/29 12:08:42;;;;;;;2.95;1.17;;;;;;;24.05;57.68;101171.34;4936025;29;20433;-80